createdAt,value
2023-05-02T00:01:31.823Z,101152.53
2023-05-02T00:03:35.526Z,101149.09
2023-05-02T00:05:39.083Z,101134.06
2023-05-02T00:07:42.420Z,101183.41
2023-05-02T00:09:45.793Z,101177.78
2023-05-02T00:11:50.469Z,101181.09
2023-05-02T00:13:53.895Z,101181.03
2023-05-02T00:15:57.266Z,101182.63
2023-05-02T00:18:01.405Z,101194.91
2023-05-02T00:20:05.465Z,101172.69
2023-05-02T00:22:08.829Z,101192.91
2023-05-02T00:24:12.194Z,101192.91
2023-05-02T00:26:15.609Z,101174.22
2023-05-02T00:28:21.065Z,101197.16
2023-05-02T00:30:24.358Z,101187.38
2023-05-02T00:32:28.747Z,101188.97
2023-05-02T00:34:32.176Z,101191.44
2023-05-02T00:36:35.520Z,101191.38
2023-05-02T00:38:38.814Z,101199.22
2023-05-02T00:40:46.380Z,101154.53
2023-05-02T00:42:49.847Z,101179.72
2023-05-02T00:44:54.505Z,101090.88
2023-05-02T00:46:58.965Z,101182.63
2023-05-02T00:49:02.747Z,101217.03
2023-05-02T00:51:06.388Z,101215.81
2023-05-02T00:53:11.051Z,101214.94
2023-05-02T00:55:14.669Z,101210.59
2023-05-02T00:57:18.624Z,101198.06
2023-05-02T00:59:22.156Z,101223.09
2023-05-02T01:01:41.013Z,101221.13
2023-05-02T01:03:56.611Z,101221.97
2023-05-02T01:06:12.942Z,101225.53
2023-05-02T01:08:28.059Z,101223.50
2023-05-02T01:10:49.013Z,101226.38
2023-05-02T01:12:59.944Z,101231.66
2023-05-02T01:15:08.624Z,101214.56
2023-05-02T01:17:17.441Z,101233.22
2023-05-02T01:19:27.388Z,101234.84
2023-05-02T01:21:31.189Z,101238.22
2023-05-02T01:23:44.427Z,101242.38
2023-05-02T01:26:02.369Z,101242.28
2023-05-02T01:28:18.013Z,101246.47
2023-05-02T01:30:25.496Z,101244.88
2023-05-02T01:32:30.968Z,101254.38
2023-05-02T01:34:36.854Z,101255.94
2023-05-02T01:36:44.963Z,101255.09
2023-05-02T01:38:50.532Z,101260.28
2023-05-02T01:40:55.465Z,101246.19
2023-05-02T01:43:00.708Z,101251.50
2023-05-02T01:45:05.651Z,101256.09
2023-05-02T01:47:11.441Z,101265.56
2023-05-02T01:49:15.787Z,101270.09
2023-05-02T01:51:21.671Z,101255.13
2023-05-02T01:53:26.748Z,101272.44
2023-05-02T01:55:30.248Z,101267.94
2023-05-02T01:57:34.127Z,101269.66
2023-05-02T01:59:38.338Z,101287.13
2023-05-02T02:01:44.839Z,101279.25
2023-05-02T02:03:50.103Z,101287.56
2023-05-02T02:05:55.341Z,101291.66
2023-05-02T02:07:59.155Z,101290.00
2023-05-02T02:10:03.110Z,101288.16
2023-05-02T02:12:09.797Z,101292.56
2023-05-02T02:14:19.522Z,101296.06
2023-05-02T02:16:26.594Z,101302.13
2023-05-02T02:18:33.538Z,101304.78
2023-05-02T02:20:40.180Z,101303.94
2023-05-02T02:22:46.393Z,101258.72
2023-05-02T02:24:53.052Z,101303.63
2023-05-02T02:26:57.880Z,101304.50
2023-05-02T02:29:01.577Z,101288.63
2023-05-02T02:31:04.946Z,101303.50
2023-05-02T02:33:08.464Z,101305.31
2023-05-02T02:35:12.510Z,101308.28
2023-05-02T02:37:20.514Z,101302.38
2023-05-02T02:39:36.847Z,101312.94
2023-05-02T02:41:45.865Z,101310.56
2023-05-02T02:43:54.832Z,101318.59
2023-05-02T02:46:09.703Z,101325.00
2023-05-02T02:48:30.653Z,101312.81
2023-05-02T02:50:39.349Z,101321.75
2023-05-02T02:52:53.434Z,101298.84
2023-05-02T02:55:01.653Z,101329.69
2023-05-02T02:57:14.673Z,101324.31
2023-05-02T02:59:24.874Z,101322.63
2023-05-02T03:01:31.829Z,101225.03
2023-05-02T03:03:35.695Z,101277.31
2023-05-02T03:05:39.762Z,101328.69
2023-05-02T03:07:43.842Z,101325.19
2023-05-02T03:09:49.178Z,101342.03
2023-05-02T03:11:57.873Z,101335.00
2023-05-02T03:14:02.547Z,101352.41
2023-05-02T03:16:35.148Z,101345.47
2023-05-02T03:18:39.881Z,101343.78
2023-05-02T03:20:43.271Z,101346.41
2023-05-02T03:22:46.980Z,101342.81
2023-05-02T03:24:52.227Z,101354.22
2023-05-02T03:26:56.862Z,101337.63
2023-05-02T03:29:04.265Z,101340.47
2023-05-02T03:31:13.433Z,101337.06
2023-05-02T03:33:16.959Z,101352.06
2023-05-02T03:35:22.046Z,101349.31
2023-05-02T03:37:28.168Z,101357.09
2023-05-02T03:39:33.887Z,101353.47
2023-05-02T03:41:39.820Z,101356.22
2023-05-02T03:43:46.530Z,101361.44
2023-05-02T03:45:50.105Z,101363.16
2023-05-02T03:47:53.867Z,101349.97
2023-05-02T03:49:58.219Z,101328.59
2023-05-02T03:52:02.597Z,101356.19
2023-05-02T03:54:10.513Z,101356.84
2023-05-02T03:56:20.100Z,101360.16
2023-05-02T03:58:32.107Z,101373.31
2023-05-02T04:00:36.399Z,101368.84
2023-05-02T04:02:43.702Z,101368.47
2023-05-02T04:04:51.848Z,101368.56
2023-05-02T04:06:57.695Z,101366.06
2023-05-02T04:09:01.259Z,101372.28
2023-05-02T04:11:11.445Z,101276.38
2023-05-02T04:13:14.987Z,101376.13
2023-05-02T04:15:26.089Z,101380.47
2023-05-02T04:17:36.198Z,101384.00
2023-05-02T04:19:46.497Z,101376.13
2023-05-02T04:21:52.222Z,101378.75
2023-05-02T04:23:57.450Z,101386.59
2023-05-02T04:26:01.250Z,101380.31
2023-05-02T04:28:13.022Z,101381.44
2023-05-02T04:30:16.575Z,101386.78
2023-05-02T04:32:28.233Z,101398.22
2023-05-02T04:34:32.694Z,101397.44
2023-05-02T04:36:36.162Z,101399.16
2023-05-02T04:38:39.609Z,101391.09
2023-05-02T04:40:43.525Z,101410.34
2023-05-02T04:42:47.262Z,101397.19
2023-05-02T04:44:53.855Z,101395.47
2023-05-02T04:47:01.129Z,101410.56
2023-05-02T04:49:06.047Z,101398.97
2023-05-02T04:51:11.013Z,101395.38
2023-05-02T04:53:14.559Z,101415.81
2023-05-02T04:55:18.043Z,101378.50
2023-05-02T04:57:23.439Z,101422.78
2023-05-02T04:59:35.108Z,101426.31
2023-05-02T05:01:39.303Z,101434.31
2023-05-02T05:03:44.998Z,101430.81
2023-05-02T05:05:50.813Z,101433.16
2023-05-02T05:07:56.378Z,101441.16
2023-05-02T05:10:02.237Z,101450.78
2023-05-02T05:12:11.974Z,101446.34
2023-05-02T05:14:15.293Z,101449.75
2023-05-02T05:16:22.263Z,101451.16
2023-05-02T05:18:25.915Z,101449.28
2023-05-02T05:20:29.866Z,101445.72
2023-05-02T05:22:41.489Z,101461.66
2023-05-02T05:24:52.665Z,101454.75
2023-05-02T05:26:56.852Z,101464.09
2023-05-02T05:29:00.393Z,101452.59
2023-05-02T05:31:10.631Z,101462.06
2023-05-02T05:33:14.769Z,101465.63
2023-05-02T05:35:18.512Z,101467.41
2023-05-02T05:37:22.820Z,101479.72
2023-05-02T05:39:27.722Z,101474.72
2023-05-02T05:41:34.172Z,101477.78
2023-05-02T05:43:41.921Z,101485.19
2023-05-02T05:45:46.319Z,101483.72
2023-05-02T05:47:49.814Z,101481.50
2023-05-02T05:49:54.996Z,101486.00
2023-05-02T05:52:01.899Z,101493.13
2023-05-02T05:54:05.872Z,101491.34
2023-05-02T05:56:11.670Z,101497.47
2023-05-02T05:58:17.808Z,101504.22
2023-05-02T06:00:21.993Z,101502.34
2023-05-02T06:02:28.433Z,101479.19
2023-05-02T06:04:32.819Z,101469.94
2023-05-02T06:06:36.520Z,101509.88
2023-05-02T06:08:39.907Z,101514.91
2023-05-02T06:10:43.223Z,101511.03
2023-05-02T06:12:49.266Z,101523.38
2023-05-02T06:14:55.060Z,101517.41
2023-05-02T06:17:00.343Z,101516.22
2023-05-02T06:19:04.681Z,101516.31
2023-05-02T06:21:08.512Z,101510.03
2023-05-02T06:23:12.181Z,101523.78
2023-05-02T06:25:15.786Z,101428.00
2023-05-02T06:27:19.136Z,101534.88
2023-05-02T06:29:23.965Z,101525.38
2023-05-02T06:31:27.329Z,101535.19
2023-05-02T06:33:30.963Z,101517.81
2023-05-02T06:35:34.317Z,101544.69
2023-05-02T06:37:37.874Z,101537.47
2023-05-02T06:39:41.209Z,101559.59
2023-05-02T06:41:44.533Z,101563.00
2023-05-02T06:43:52.648Z,101556.28
2023-05-02T06:45:57.790Z,101567.00
2023-05-02T06:48:01.479Z,101563.81
2023-05-02T06:50:05.170Z,101571.13
2023-05-02T06:52:08.699Z,101579.13
2023-05-02T06:54:12.202Z,101561.41
2023-05-02T06:56:15.689Z,101579.22
2023-05-02T06:58:19.069Z,101576.41
2023-05-02T07:00:22.837Z,101593.91
2023-05-02T07:02:27.717Z,101579.56
2023-05-02T07:04:31.318Z,101589.59
2023-05-02T07:06:34.818Z,101593.19
2023-05-02T07:08:38.648Z,101599.19
2023-05-02T07:10:41.938Z,101606.88
2023-05-02T07:12:45.327Z,101603.03
2023-05-02T07:14:48.703Z,101582.03
2023-05-02T07:16:52.215Z,101618.84
2023-05-02T07:18:57.016Z,101618.41
2023-05-02T07:21:01.322Z,101619.16
2023-05-02T07:23:04.700Z,101621.81
2023-05-02T07:25:09.947Z,101611.22
2023-05-02T07:27:13.950Z,101626.69
2023-05-02T07:29:17.372Z,101631.16
2023-05-02T07:31:20.946Z,101636.50
2023-05-02T07:33:24.424Z,101627.78
2023-05-02T07:35:29.242Z,101628.91
2023-05-02T07:37:34.797Z,101634.22
2023-05-02T07:39:38.147Z,101638.84
2023-05-02T07:41:41.488Z,101539.03
2023-05-02T07:43:44.896Z,101630.69
2023-05-02T07:45:48.368Z,101653.84
2023-05-02T07:47:51.977Z,101656.47
2023-05-02T07:49:56.291Z,101653.63
2023-05-02T07:52:01.136Z,101659.91
2023-05-02T07:54:04.751Z,101660.09
2023-05-02T07:56:09.464Z,101668.34
2023-05-02T07:58:12.849Z,101659.81
2023-05-02T08:00:17.249Z,101657.28
2023-05-02T08:02:23.678Z,101606.28
2023-05-02T08:04:27.388Z,101677.25
2023-05-02T08:06:30.932Z,101660.34
2023-05-02T08:08:35.729Z,101670.88
2023-05-02T08:10:39.039Z,101663.53
2023-05-02T08:12:43.104Z,101660.13
2023-05-02T08:14:46.481Z,101680.50
2023-05-02T08:16:50.086Z,101676.28
2023-05-02T08:18:53.492Z,101683.59
2023-05-02T08:20:58.476Z,101675.84
2023-05-02T08:23:01.928Z,101673.28
2023-05-02T08:25:07.510Z,101681.31
2023-05-02T08:27:10.778Z,101684.75
2023-05-02T08:29:14.200Z,101652.38
2023-05-02T08:31:17.573Z,101691.78
2023-05-02T08:33:21.030Z,101690.28
2023-05-02T08:35:24.492Z,101691.25
2023-05-02T08:37:27.787Z,101707.16
2023-05-02T08:39:34.211Z,101699.25
2023-05-02T08:41:39.917Z,101708.53
2023-05-02T08:43:43.283Z,101720.56
2023-05-02T08:45:46.810Z,101716.56
2023-05-02T08:47:51.608Z,101722.69
2023-05-02T08:49:57.797Z,101727.28
2023-05-02T08:52:02.627Z,101725.78
2023-05-02T08:54:09.525Z,101729.56
2023-05-02T08:56:14.052Z,101728.63
2023-05-02T08:58:18.889Z,101742.41
2023-05-02T09:00:22.325Z,101735.22
2023-05-02T09:02:39.535Z,101739.75
2023-05-02T09:04:44.402Z,101740.25
2023-05-02T09:06:47.853Z,101752.69
2023-05-02T09:08:53.340Z,101750.00
2023-05-02T09:10:56.739Z,101756.16
2023-05-02T09:13:28.949Z,101749.34
2023-05-02T09:15:33.709Z,101761.41
2023-05-02T09:17:41.501Z,101748.47
2023-05-02T09:19:44.863Z,101767.84
2023-05-02T09:21:48.322Z,101769.66
2023-05-02T09:23:53.708Z,101775.78
2023-05-02T09:25:57.085Z,101770.38
2023-05-02T09:28:01.849Z,101778.16
2023-05-02T09:30:22.043Z,101782.31
2023-05-02T09:32:46.043Z,101781.50
2023-05-02T09:35:07.846Z,101795.03
2023-05-02T09:37:11.433Z,101785.59
2023-05-02T09:39:16.297Z,101780.31
2023-05-02T09:41:21.063Z,101778.19
2023-05-02T09:43:24.448Z,101796.50
2023-05-02T09:45:28.055Z,101749.56
2023-05-02T09:47:33.177Z,101800.16
2023-05-02T09:49:41.484Z,101803.06
2023-05-02T09:51:44.829Z,101792.81
2023-05-02T09:53:48.567Z,101801.41
2023-05-02T09:56:02.548Z,101811.00
2023-05-02T09:58:06.587Z,101807.06
2023-05-02T10:00:11.234Z,101810.03
2023-05-02T10:02:16.079Z,101810.03
2023-05-02T10:04:21.202Z,101817.97
2023-05-02T10:06:24.716Z,101811.88
2023-05-02T10:08:29.612Z,101819.69
2023-05-02T10:10:34.162Z,101816.41
2023-05-02T10:12:39.541Z,101824.50
2023-05-02T10:14:50.739Z,101788.69
2023-05-02T10:17:00.950Z,101822.69
2023-05-02T10:19:10.077Z,101826.59
2023-05-02T10:21:18.750Z,101809.56
2023-05-02T10:23:23.358Z,101828.84
2023-05-02T10:25:27.040Z,101832.28
2023-05-02T10:27:31.274Z,101832.13
2023-05-02T10:29:36.066Z,101833.25
2023-05-02T10:31:42.356Z,101842.09
2023-05-02T10:33:50.744Z,101840.34
2023-05-02T10:35:54.207Z,101841.91
2023-05-02T10:38:01.923Z,101842.25
2023-05-02T10:40:06.862Z,101849.50
2023-05-02T10:42:11.041Z,101844.25
2023-05-02T10:44:14.606Z,101845.06
2023-05-02T10:46:34.956Z,101839.72
2023-05-02T10:48:38.744Z,101842.63
2023-05-02T10:50:46.489Z,101838.91
2023-05-02T10:52:49.909Z,101832.84
2023-05-02T10:55:15.021Z,101845.38
2023-05-02T10:57:18.422Z,101836.19
2023-05-02T10:59:29.707Z,101844.25
2023-05-02T11:01:42.019Z,101820.34
2023-05-02T11:03:59.010Z,101839.59
2023-05-02T11:06:09.663Z,101831.69
2023-05-02T11:08:31.949Z,101843.72
2023-05-02T11:10:36.697Z,101806.28
2023-05-02T11:12:47.924Z,101843.06
2023-05-02T11:14:51.334Z,101843.16
2023-05-02T11:17:10.343Z,101842.56
2023-05-02T11:19:13.771Z,101846.91
2023-05-02T11:21:30.138Z,101839.03
2023-05-02T11:23:36.819Z,101837.41
2023-05-02T11:25:43.478Z,101828.63
2023-05-02T11:27:49.368Z,101839.13
2023-05-02T11:29:53.334Z,101834.28
2023-05-02T11:31:56.836Z,101835.34
2023-05-02T11:34:01.336Z,101809.19
2023-05-02T11:36:05.179Z,101832.66
2023-05-02T11:38:12.349Z,101826.59
2023-05-02T11:40:16.690Z,101830.28
2023-05-02T11:42:31.704Z,101792.25
2023-05-02T11:44:35.794Z,101838.41
2023-05-02T11:46:40.000Z,101841.75
2023-05-02T11:48:48.328Z,101847.25
2023-05-02T11:50:53.148Z,101834.38
2023-05-02T11:52:57.255Z,101831.66
2023-05-02T11:55:00.846Z,101854.72
2023-05-02T11:57:04.878Z,101861.53
2023-05-02T11:59:09.573Z,101860.63
2023-05-02T12:01:14.415Z,101854.47
2023-05-02T12:03:25.716Z,101863.00
2023-05-02T12:05:30.583Z,101820.94
2023-05-02T12:07:38.334Z,101866.97
2023-05-02T12:09:54.874Z,101871.41
2023-05-02T12:11:59.183Z,101869.59
2023-05-02T12:14:03.421Z,101877.63
2023-05-02T12:16:08.857Z,101872.88
2023-05-02T12:18:13.481Z,101873.06
2023-05-02T12:20:19.246Z,101885.19
2023-05-02T12:22:24.708Z,101882.03
2023-05-02T12:24:31.305Z,101883.09
2023-05-02T12:26:34.641Z,101882.81
2023-05-02T12:28:49.370Z,101881.03
2023-05-02T12:30:53.119Z,101887.50
2023-05-02T12:33:02.434Z,101887.50
2023-05-02T12:35:07.564Z,101890.31
2023-05-02T12:37:11.688Z,101889.50
2023-05-02T12:39:15.194Z,101893.59
2023-05-02T12:41:18.897Z,101892.19
2023-05-02T12:43:22.820Z,101892.28
2023-05-02T12:45:29.105Z,101851.28
2023-05-02T12:47:46.019Z,101892.94
2023-05-02T12:49:51.607Z,101902.22
2023-05-02T12:51:56.255Z,101869.28
2023-05-02T12:53:59.676Z,101905.00
2023-05-02T12:56:03.787Z,101912.16
2023-05-02T12:58:09.201Z,101909.69
2023-05-02T13:00:13.918Z,101916.81
2023-05-02T13:02:17.264Z,101916.56
2023-05-02T13:04:20.732Z,101921.00
2023-05-02T13:06:26.079Z,101926.31
2023-05-02T13:08:29.460Z,101891.00
2023-05-02T13:10:33.169Z,101917.19
2023-05-02T13:12:38.271Z,101925.41
2023-05-02T13:14:41.826Z,101935.00
2023-05-02T13:16:45.434Z,101920.22
2023-05-02T13:18:48.845Z,101928.81
2023-05-02T13:20:52.216Z,101937.69
2023-05-02T13:22:56.991Z,101929.63
2023-05-02T13:25:00.795Z,101919.47
2023-05-02T13:27:04.477Z,101932.81
2023-05-02T13:29:09.643Z,101937.03
2023-05-02T13:31:12.969Z,101934.81
2023-05-02T13:33:16.330Z,101926.13
2023-05-02T13:35:19.669Z,101928.31
2023-05-02T13:37:23.346Z,101923.25
2023-05-02T13:39:28.091Z,101939.81
2023-05-02T13:41:31.439Z,101938.00
2023-05-02T13:43:34.876Z,101951.19
2023-05-02T13:45:38.346Z,101947.06
2023-05-02T13:47:44.982Z,101955.16
2023-05-02T13:49:48.374Z,101950.97
2023-05-02T13:51:52.089Z,101948.56
2023-05-02T13:53:55.604Z,101947.13
2023-05-02T13:56:00.482Z,101939.63
2023-05-02T13:58:03.839Z,101859.56
2023-05-02T14:00:09.747Z,101943.50
2023-05-02T14:02:13.177Z,101942.53
2023-05-02T14:04:16.471Z,101943.34
2023-05-02T14:06:19.764Z,101865.31
2023-05-02T14:08:23.075Z,101947.16
2023-05-02T14:10:26.808Z,101948.84
2023-05-02T14:12:31.651Z,101945.66
2023-05-02T14:14:36.105Z,101954.72
2023-05-02T14:16:39.708Z,101932.56
2023-05-02T14:18:43.515Z,101938.28
2023-05-02T14:20:47.115Z,101870.19
2023-05-02T14:22:50.730Z,101956.22
2023-05-02T14:24:54.030Z,101948.34
2023-05-02T14:26:58.324Z,101957.72
2023-05-02T14:29:03.218Z,101957.78
2023-05-02T14:31:06.741Z,101954.75
2023-05-02T14:33:10.927Z,101957.22
2023-05-02T14:35:14.445Z,101955.81
2023-05-02T14:37:18.157Z,101959.25
2023-05-02T14:39:21.495Z,101953.22
2023-05-02T14:41:25.161Z,101948.31
2023-05-02T14:43:28.709Z,101946.53
2023-05-02T14:45:33.401Z,101949.44
2023-05-02T14:47:36.901Z,101949.28
2023-05-02T14:49:42.002Z,101948.28
2023-05-02T14:51:47.514Z,101931.19
2023-05-02T14:53:50.993Z,101943.09
2023-05-02T14:55:54.343Z,101942.69
2023-05-02T14:57:58.425Z,101940.16
2023-05-02T15:00:02.394Z,101945.78
2023-05-02T15:02:08.030Z,101950.28
2023-05-02T15:04:11.634Z,101944.28
2023-05-02T15:06:15.570Z,101917.88
2023-05-02T15:08:19.517Z,101945.22
2023-05-02T15:10:22.859Z,101944.28
2023-05-02T15:12:26.316Z,101941.59
2023-05-02T15:14:29.718Z,101941.94
2023-05-02T15:16:33.246Z,101948.19
2023-05-02T15:18:37.990Z,101949.72
2023-05-02T15:20:41.290Z,101942.78
2023-05-02T15:22:44.617Z,101938.28
2023-05-02T15:24:48.016Z,101935.75
2023-05-02T15:26:51.358Z,101931.28
2023-05-02T15:28:54.770Z,101938.25
2023-05-02T15:30:58.019Z,101936.78
2023-05-02T15:33:01.393Z,101944.84
2023-05-02T15:35:07.876Z,101940.94
2023-05-02T15:37:11.298Z,101939.28
2023-05-02T15:39:14.734Z,101937.00
2023-05-02T15:41:18.097Z,101942.25
2023-05-02T15:43:21.560Z,101934.59
2023-05-02T15:45:25.513Z,101939.88
2023-05-02T15:47:29.299Z,101941.50
2023-05-02T15:49:33.227Z,101944.41
2023-05-02T15:51:38.418Z,101947.22
2023-05-02T15:53:44.299Z,101944.75
2023-05-02T15:55:47.760Z,101953.66
2023-05-02T15:57:53.002Z,101942.84
2023-05-02T15:59:56.375Z,101943.84
2023-05-02T16:01:59.799Z,101956.97
2023-05-02T16:04:06.147Z,101957.88
2023-05-02T16:06:09.882Z,101957.84
2023-05-02T16:08:14.581Z,101957.41
2023-05-02T16:10:17.876Z,101956.38
2023-05-02T16:12:21.270Z,101957.78
2023-05-02T16:14:26.170Z,101954.56
2023-05-02T16:16:29.589Z,101962.59
2023-05-02T16:18:34.344Z,101950.06
2023-05-02T16:20:37.851Z,101953.69
2023-05-02T16:22:44.212Z,101951.88
2023-05-02T16:24:48.964Z,101961.69
2023-05-02T16:26:52.516Z,101956.66
2023-05-02T16:28:55.908Z,101961.78
2023-05-02T16:30:59.293Z,101961.00
2023-05-02T16:33:03.728Z,101960.81
2023-05-02T16:35:10.696Z,101962.34
2023-05-02T16:37:14.121Z,101956.16
2023-05-02T16:39:17.848Z,101953.72
2023-05-02T16:41:23.164Z,101960.81
2023-05-02T16:43:26.677Z,101960.72
2023-05-02T16:45:30.104Z,101959.97
2023-05-02T16:47:34.449Z,101961.25
2023-05-02T16:49:39.243Z,101962.13
2023-05-02T16:51:42.732Z,101961.16
2023-05-02T16:53:46.282Z,101960.44
2023-05-02T16:55:49.895Z,101937.31
2023-05-02T16:57:54.554Z,101935.09
2023-05-02T16:59:58.040Z,101967.72
2023-05-02T17:02:02.296Z,101859.44
2023-05-02T17:04:05.900Z,101965.94
2023-05-02T17:06:09.749Z,101960.34
2023-05-02T17:08:13.732Z,101954.97
2023-05-02T17:10:17.348Z,101956.16
2023-05-02T17:12:22.554Z,101931.28
2023-05-02T17:14:27.492Z,101958.13
2023-05-02T17:16:30.816Z,101956.59
2023-05-02T17:18:34.461Z,101957.81
2023-05-02T17:20:38.136Z,101945.50
2023-05-02T17:22:41.706Z,101965.84
2023-05-02T17:24:48.197Z,101969.31
2023-05-02T17:26:52.065Z,101965.47
2023-05-02T17:28:55.484Z,101965.00
2023-05-02T17:31:00.332Z,101969.22
2023-05-02T17:33:03.744Z,101965.41
2023-05-02T17:35:07.620Z,101975.19
2023-05-02T17:37:11.021Z,101856.50
2023-05-02T17:39:15.872Z,101971.91
2023-05-02T17:41:19.189Z,101961.25
2023-05-02T17:43:22.531Z,101967.84
2023-05-02T17:45:26.107Z,101973.41
2023-05-02T17:47:31.098Z,101958.25
2023-05-02T17:49:35.486Z,101944.75
2023-05-02T17:51:38.801Z,101965.00
2023-05-02T17:53:42.546Z,101963.94
2023-05-02T17:55:45.862Z,101972.47
2023-05-02T17:57:49.399Z,101966.28
2023-05-02T17:59:56.571Z,101967.03
2023-05-02T18:02:00.240Z,101968.38
2023-05-02T18:04:05.128Z,101971.63
2023-05-02T18:06:09.465Z,101976.00
2023-05-02T18:08:12.805Z,101970.47
2023-05-02T18:10:16.620Z,101973.94
2023-05-02T18:12:20.481Z,101974.72
2023-05-02T18:14:23.867Z,101969.06
2023-05-02T18:16:29.397Z,101976.75
2023-05-02T18:18:33.093Z,101974.69
2023-05-02T18:20:43.696Z,101977.81
2023-05-02T18:22:47.032Z,101988.66
2023-05-02T18:24:50.755Z,101980.13
2023-05-02T18:26:54.106Z,101980.66
2023-05-02T18:28:57.480Z,101987.63
2023-05-02T18:31:01.081Z,101984.91
2023-05-02T18:33:04.572Z,101982.16
2023-05-02T18:35:11.119Z,101983.78
2023-05-02T18:37:15.773Z,101985.63
2023-05-02T18:39:21.475Z,101958.97
2023-05-02T18:41:24.866Z,101982.63
2023-05-02T18:43:28.223Z,101984.72
2023-05-02T18:45:31.562Z,101983.78
2023-05-02T18:47:36.431Z,101986.94
2023-05-02T18:49:40.939Z,101960.66
2023-05-02T18:51:44.302Z,101988.56
2023-05-02T18:53:49.581Z,101958.03
2023-05-02T18:55:53.523Z,101984.94
2023-05-02T18:57:57.909Z,101987.56
2023-05-02T19:00:01.746Z,101988.34
2023-05-02T19:02:05.331Z,101993.53
2023-05-02T19:04:08.629Z,101996.16
2023-05-02T19:06:12.499Z,101997.97
2023-05-02T19:08:16.157Z,102001.59
2023-05-02T19:10:20.820Z,102004.09
2023-05-02T19:12:24.365Z,102002.22
2023-05-02T19:14:28.009Z,101978.75
2023-05-02T19:16:31.567Z,102006.41
2023-05-02T19:18:35.146Z,101998.34
2023-05-02T19:20:38.758Z,102019.47
2023-05-02T19:22:42.892Z,102021.53
2023-05-02T19:24:46.319Z,102028.78
2023-05-02T19:26:51.070Z,101915.47
2023-05-02T19:28:54.476Z,102031.50
2023-05-02T19:30:58.475Z,102037.56
2023-05-02T19:33:01.811Z,102045.47
2023-05-02T19:35:07.077Z,102047.16
2023-05-02T19:37:10.519Z,102049.78
2023-05-02T19:39:13.865Z,102040.13
2023-05-02T19:41:17.248Z,102046.31
2023-05-02T19:43:21.996Z,102048.00
2023-05-02T19:45:25.306Z,102052.34
2023-05-02T19:47:29.589Z,102054.06
2023-05-02T19:49:32.889Z,102054.84
2023-05-02T19:51:36.281Z,102041.44
2023-05-02T19:53:39.706Z,102051.13
2023-05-02T19:55:43.237Z,102049.31
2023-05-02T19:57:48.343Z,102057.03
2023-05-02T19:59:53.287Z,102057.63
2023-05-02T20:01:56.763Z,102057.25
2023-05-02T20:04:00.197Z,102058.75
2023-05-02T20:06:03.744Z,102063.94
2023-05-02T20:08:07.119Z,102053.13
2023-05-02T20:10:10.933Z,102069.59
2023-05-02T20:12:14.199Z,102066.06
2023-05-02T20:14:18.743Z,102056.50
2023-05-02T20:16:23.607Z,102054.72
2023-05-02T20:18:27.161Z,102064.34
2023-05-02T20:20:31.149Z,102057.19
2023-05-02T20:22:34.601Z,102062.44
2023-05-02T20:24:37.925Z,102063.13
2023-05-02T20:26:41.228Z,102068.13
2023-05-02T20:28:44.559Z,102073.38
2023-05-02T20:30:47.906Z,102062.88
2023-05-02T20:32:52.759Z,102076.00
2023-05-02T20:34:56.340Z,102071.41
2023-05-02T20:37:01.428Z,102076.53
2023-05-02T20:39:09.141Z,102075.09
2023-05-02T20:41:13.895Z,102076.91
2023-05-02T20:43:18.788Z,102076.69
2023-05-02T20:45:24.358Z,102081.84
2023-05-02T20:47:29.736Z,102078.22
2023-05-02T20:49:34.656Z,102088.59
2023-05-02T20:51:38.116Z,102082.44
2023-05-02T20:53:41.630Z,102084.09
2023-05-02T20:55:46.108Z,102081.22
2023-05-02T20:57:51.505Z,102083.72
2023-05-02T20:59:59.280Z,102078.38
2023-05-02T21:02:03.082Z,102083.47
2023-05-02T21:04:06.895Z,102059.19
2023-05-02T21:06:13.630Z,102089.19
2023-05-02T21:08:16.964Z,102082.81
2023-05-02T21:10:20.271Z,102076.41
2023-05-02T21:12:23.596Z,102101.88
2023-05-02T21:14:27.549Z,102090.13
2023-05-02T21:16:31.083Z,102071.09
2023-05-02T21:18:34.515Z,102092.47
2023-05-02T21:20:38.108Z,102090.56
2023-05-02T21:22:43.037Z,102086.81
2023-05-02T21:24:48.131Z,102092.22
2023-05-02T21:26:51.614Z,102082.44
2023-05-02T21:28:55.018Z,102090.13
2023-05-02T21:30:58.465Z,102072.59
2023-05-02T21:33:01.993Z,102087.78
2023-05-02T21:35:06.215Z,102097.53
2023-05-02T21:37:09.573Z,102099.22
2023-05-02T21:39:14.988Z,102102.72
2023-05-02T21:41:18.415Z,102097.38
2023-05-02T21:43:21.994Z,102099.91
2023-05-02T21:45:25.492Z,102098.72
2023-05-02T21:47:29.405Z,102094.22
2023-05-02T21:49:32.849Z,102101.16
2023-05-02T21:51:38.625Z,102098.63
2023-05-02T21:53:42.433Z,102097.59
2023-05-02T21:55:47.134Z,102079.81
2023-05-02T21:57:50.506Z,102102.16
2023-05-02T21:59:53.876Z,102105.47
2023-05-02T22:01:57.630Z,102062.50
2023-05-02T22:04:01.147Z,102119.56
2023-05-02T22:06:06.238Z,102106.22
2023-05-02T22:08:11.819Z,102106.03
2023-05-02T22:10:15.252Z,102111.22
2023-05-02T22:12:20.618Z,102107.31
2023-05-02T22:14:33.801Z,102115.06
2023-05-02T22:16:48.279Z,102120.25
2023-05-02T22:18:51.657Z,102108.81
2023-05-02T22:20:57.203Z,102122.91
2023-05-02T22:23:00.620Z,102123.78
2023-05-02T22:25:04.050Z,102121.84
2023-05-02T22:27:07.923Z,102126.72
2023-05-02T22:29:13.333Z,102119.38
2023-05-02T22:31:16.747Z,102123.66
2023-05-02T22:33:20.140Z,102121.88
2023-05-02T22:35:23.486Z,102066.34
2023-05-02T22:37:27.058Z,102144.41
2023-05-02T22:39:30.566Z,102120.63
2023-05-02T22:41:33.890Z,102131.06
2023-05-02T22:43:37.360Z,102130.03
2023-05-02T22:45:42.081Z,102135.22
2023-05-02T22:47:45.936Z,102075.84
2023-05-02T22:49:49.374Z,102126.88
2023-05-02T22:51:57.914Z,102134.69
2023-05-02T22:54:01.894Z,102127.72
2023-05-02T22:56:05.826Z,102129.47
2023-05-02T22:58:09.235Z,102123.28
2023-05-02T23:00:13.894Z,102126.88
2023-05-02T23:02:18.770Z,102124.06
2023-05-02T23:04:22.387Z,102128.09
2023-05-02T23:06:28.452Z,102124.56
2023-05-02T23:08:31.963Z,102098.03
2023-05-02T23:10:35.392Z,102122.13
2023-05-02T23:12:39.572Z,102125.13
2023-05-02T23:14:42.885Z,102107.38
2023-05-02T23:16:46.285Z,102111.47
2023-05-02T23:18:51.039Z,102124.19
2023-05-02T23:20:54.348Z,102116.94
2023-05-02T23:22:58.474Z,102113.16
2023-05-02T23:25:01.790Z,102102.25
2023-05-02T23:27:06.248Z,102117.38
2023-05-02T23:29:09.723Z,102104.41
2023-05-02T23:31:13.662Z,102073.69
2023-05-02T23:33:17.408Z,102079.88
2023-05-02T23:35:22.287Z,102110.16
2023-05-02T23:37:25.740Z,102110.41
2023-05-02T23:39:29.104Z,102104.13
2023-05-02T23:41:32.650Z,102104.13
2023-05-02T23:43:36.258Z,102108.44
2023-05-02T23:45:39.726Z,102118.88
2023-05-02T23:47:43.150Z,102106.66
2023-05-02T23:49:46.733Z,102110.41